sensor_id;sensor_type;location;lat;lon;timestamp;P1;durP1;ratioP1;P2;durP2;ratioP2
43994;SDS011;51687;52.160;5.298;2023-05-07T00:01:27;12.43;;;11.52;;
43994;SDS011;51687;52.160;5.298;2023-05-07T00:03:54;12.05;;;11.25;;
43994;SDS011;51687;52.160;5.298;2023-05-07T00:06:22;12.30;;;11.40;;
43994;SDS011;51687;52.160;5.298;2023-05-07T00:08:48;11.75;;;10.82;;
43994;SDS011;51687;52.160;5.298;2023-05-07T00:11:15;11.05;;;10.27;;
43994;SDS011;51687;52.160;5.298;2023-05-07T00:13:42;12.23;;;11.35;;
43994;SDS011;51687;52.160;5.298;2023-05-07T00:16:08;11.70;;;10.60;;
43994;SDS011;51687;52.160;5.298;2023-05-07T00:18:36;11.07;;;10.15;;
43994;SDS011;51687;52.160;5.298;2023-05-07T00:21:02;10.77;;;9.98;;
43994;SDS011;51687;52.160;5.298;2023-05-07T00:23:29;10.18;;;9.38;;
43994;SDS011;51687;52.160;5.298;2023-05-07T00:25:56;10.57;;;9.85;;
43994;SDS011;51687;52.160;5.298;2023-05-07T00:28:23;10.32;;;9.45;;
43994;SDS011;51687;52.160;5.298;2023-05-07T00:30:49;9.63;;;9.02;;
43994;SDS011;51687;52.160;5.298;2023-05-07T00:33:16;10.70;;;9.80;;
43994;SDS011;51687;52.160;5.298;2023-05-07T00:35:43;9.40;;;8.70;;
43994;SDS011;51687;52.160;5.298;2023-05-07T00:38:10;9.25;;;8.55;;
43994;SDS011;51687;52.160;5.298;2023-05-07T00:40:36;9.45;;;8.63;;
43994;SDS011;51687;52.160;5.298;2023-05-07T00:43:03;9.63;;;8.88;;
43994;SDS011;51687;52.160;5.298;2023-05-07T00:45:30;9.07;;;8.38;;
43994;SDS011;51687;52.160;5.298;2023-05-07T00:47:57;10.63;;;9.65;;
43994;SDS011;51687;52.160;5.298;2023-05-07T00:50:28;8.75;;;8.07;;
43994;SDS011;51687;52.160;5.298;2023-05-07T00:52:56;9.25;;;8.32;;
43994;SDS011;51687;52.160;5.298;2023-05-07T00:55:23;9.27;;;8.57;;
43994;SDS011;51687;52.160;5.298;2023-05-07T00:57:50;9.68;;;8.77;;
43994;SDS011;51687;52.160;5.298;2023-05-07T01:00:17;9.05;;;8.23;;
43994;SDS011;51687;52.160;5.298;2023-05-07T01:02:44;8.55;;;7.85;;
43994;SDS011;51687;52.160;5.298;2023-05-07T01:07:44;8.68;;;8.07;;
43994;SDS011;51687;52.160;5.298;2023-05-07T01:10:12;8.85;;;8.15;;
43994;SDS011;51687;52.160;5.298;2023-05-07T01:12:40;8.60;;;7.90;;
43994;SDS011;51687;52.160;5.298;2023-05-07T01:15:08;8.38;;;7.78;;
43994;SDS011;51687;52.160;5.298;2023-05-07T01:17:36;8.90;;;8.10;;
43994;SDS011;51687;52.160;5.298;2023-05-07T01:20:05;8.70;;;8.00;;
43994;SDS011;51687;52.160;5.298;2023-05-07T01:25:04;8.38;;;7.78;;
43994;SDS011;51687;52.160;5.298;2023-05-07T01:27:32;8.98;;;8.07;;
43994;SDS011;51687;52.160;5.298;2023-05-07T01:29:59;8.70;;;8.00;;
43994;SDS011;51687;52.160;5.298;2023-05-07T01:32:33;8.43;;;7.78;;
43994;SDS011;51687;52.160;5.298;2023-05-07T01:35:02;8.38;;;7.72;;
43994;SDS011;51687;52.160;5.298;2023-05-07T01:37:33;8.70;;;7.95;;
43994;SDS011;51687;52.160;5.298;2023-05-07T01:40:00;9.65;;;8.85;;
43994;SDS011;51687;52.160;5.298;2023-05-07T01:42:28;9.70;;;8.75;;
43994;SDS011;51687;52.160;5.298;2023-05-07T01:44:55;8.60;;;8.00;;
43994;SDS011;51687;52.160;5.298;2023-05-07T01:47:22;9.98;;;9.18;;
43994;SDS011;51687;52.160;5.298;2023-05-07T01:49:50;8.57;;;7.97;;
43994;SDS011;51687;52.160;5.298;2023-05-07T01:52:17;9.10;;;8.30;;
43994;SDS011;51687;52.160;5.298;2023-05-07T01:54:44;9.57;;;8.77;;
43994;SDS011;51687;52.160;5.298;2023-05-07T01:57:11;9.63;;;8.82;;
43994;SDS011;51687;52.160;5.298;2023-05-07T01:59:38;9.45;;;8.80;;
43994;SDS011;51687;52.160;5.298;2023-05-07T02:02:05;10.85;;;9.82;;
43994;SDS011;51687;52.160;5.298;2023-05-07T02:04:32;9.05;;;8.52;;
43994;SDS011;51687;52.160;5.298;2023-05-07T02:06:59;10.27;;;9.60;;
43994;SDS011;51687;52.160;5.298;2023-05-07T02:09:26;9.98;;;9.23;;
43994;SDS011;51687;52.160;5.298;2023-05-07T02:11:54;9.80;;;9.10;;
43994;SDS011;51687;52.160;5.298;2023-05-07T02:14:21;10.93;;;10.02;;
43994;SDS011;51687;52.160;5.298;2023-05-07T02:16:48;10.98;;;10.10;;
43994;SDS011;51687;52.160;5.298;2023-05-07T02:19:15;9.77;;;8.98;;
43994;SDS011;51687;52.160;5.298;2023-05-07T02:21:41;10.13;;;9.38;;
43994;SDS011;51687;52.160;5.298;2023-05-07T02:24:08;10.98;;;10.15;;
43994;SDS011;51687;52.160;5.298;2023-05-07T02:26:35;10.45;;;9.75;;
43994;SDS011;51687;52.160;5.298;2023-05-07T02:29:02;11.32;;;10.20;;
43994;SDS011;51687;52.160;5.298;2023-05-07T02:31:28;10.75;;;9.95;;
43994;SDS011;51687;52.160;5.298;2023-05-07T02:33:55;10.68;;;9.88;;
43994;SDS011;51687;52.160;5.298;2023-05-07T02:36:22;12.05;;;10.43;;
43994;SDS011;51687;52.160;5.298;2023-05-07T02:38:48;11.05;;;10.18;;
43994;SDS011;51687;52.160;5.298;2023-05-07T02:41:15;11.38;;;10.25;;
43994;SDS011;51687;52.160;5.298;2023-05-07T02:43:42;10.98;;;10.18;;
43994;SDS011;51687;52.160;5.298;2023-05-07T02:46:09;11.20;;;10.45;;
43994;SDS011;51687;52.160;5.298;2023-05-07T02:48:36;11.45;;;10.65;;
43994;SDS011;51687;52.160;5.298;2023-05-07T02:51:03;11.45;;;10.65;;
43994;SDS011;51687;52.160;5.298;2023-05-07T02:53:31;11.50;;;10.70;;
43994;SDS011;51687;52.160;5.298;2023-05-07T02:55:59;11.77;;;10.77;;
43994;SDS011;51687;52.160;5.298;2023-05-07T03:00:53;11.75;;;10.95;;
43994;SDS011;51687;52.160;5.298;2023-05-07T03:03:23;11.10;;;10.30;;
43994;SDS011;51687;52.160;5.298;2023-05-07T03:05:50;11.45;;;10.00;;
43994;SDS011;51687;52.160;5.298;2023-05-07T03:08:16;12.48;;;11.68;;
43994;SDS011;51687;52.160;5.298;2023-05-07T03:10:43;12.43;;;11.45;;
43994;SDS011;51687;52.160;5.298;2023-05-07T03:13:10;12.73;;;11.82;;
43994;SDS011;51687;52.160;5.298;2023-05-07T03:15:37;12.70;;;11.80;;
43994;SDS011;51687;52.160;5.298;2023-05-07T03:18:03;11.85;;;10.95;;
43994;SDS011;51687;52.160;5.298;2023-05-07T03:20:30;11.38;;;10.68;;
43994;SDS011;51687;52.160;5.298;2023-05-07T03:22:57;13.30;;;12.23;;
43994;SDS011;51687;52.160;5.298;2023-05-07T03:25:24;12.10;;;11.20;;
43994;SDS011;51687;52.160;5.298;2023-05-07T03:27:51;11.05;;;10.25;;
43994;SDS011;51687;52.160;5.298;2023-05-07T03:30:18;12.35;;;11.32;;
43994;SDS011;51687;52.160;5.298;2023-05-07T03:32:45;12.23;;;11.43;;
43994;SDS011;51687;52.160;5.298;2023-05-07T03:35:11;12.18;;;11.38;;
43994;SDS011;51687;52.160;5.298;2023-05-07T03:37:38;13.15;;;12.20;;
43994;SDS011;51687;52.160;5.298;2023-05-07T03:40:06;12.80;;;11.70;;
43994;SDS011;51687;52.160;5.298;2023-05-07T03:42:35;12.98;;;11.88;;
43994;SDS011;51687;52.160;5.298;2023-05-07T03:45:02;13.57;;;12.13;;
43994;SDS011;51687;52.160;5.298;2023-05-07T03:47:29;12.55;;;11.73;;
43994;SDS011;51687;52.160;5.298;2023-05-07T03:49:56;12.57;;;11.77;;
43994;SDS011;51687;52.160;5.298;2023-05-07T03:52:23;13.43;;;12.32;;
43994;SDS011;51687;52.160;5.298;2023-05-07T03:54:52;13.75;;;12.48;;
43994;SDS011;51687;52.160;5.298;2023-05-07T03:57:19;12.75;;;11.77;;
43994;SDS011;51687;52.160;5.298;2023-05-07T03:59:46;12.23;;;11.23;;
43994;SDS011;51687;52.160;5.298;2023-05-07T04:02:14;12.00;;;11.20;;
43994;SDS011;51687;52.160;5.298;2023-05-07T04:04:42;12.80;;;11.65;;
43994;SDS011;51687;52.160;5.298;2023-05-07T04:07:08;13.10;;;12.00;;
43994;SDS011;51687;52.160;5.298;2023-05-07T04:09:36;13.52;;;12.63;;
43994;SDS011;51687;52.160;5.298;2023-05-07T04:12:02;13.68;;;12.65;;
43994;SDS011;51687;52.160;5.298;2023-05-07T04:14:29;14.00;;;12.95;;
43994;SDS011;51687;52.160;5.298;2023-05-07T04:16:58;13.80;;;12.80;;
43994;SDS011;51687;52.160;5.298;2023-05-07T04:19:25;13.63;;;12.52;;
43994;SDS011;51687;52.160;5.298;2023-05-07T04:21:52;14.32;;;13.32;;
43994;SDS011;51687;52.160;5.298;2023-05-07T04:24:19;13.70;;;12.65;;
43994;SDS011;51687;52.160;5.298;2023-05-07T04:26:46;15.20;;;13.80;;
43994;SDS011;51687;52.160;5.298;2023-05-07T04:29:13;15.05;;;13.95;;
43994;SDS011;51687;52.160;5.298;2023-05-07T04:31:39;14.48;;;13.38;;
43994;SDS011;51687;52.160;5.298;2023-05-07T04:34:06;14.30;;;13.40;;
43994;SDS011;51687;52.160;5.298;2023-05-07T04:36:33;14.35;;;13.20;;
43994;SDS011;51687;52.160;5.298;2023-05-07T04:39:00;15.00;;;13.48;;
43994;SDS011;51687;52.160;5.298;2023-05-07T04:41:28;14.48;;;13.27;;
43994;SDS011;51687;52.160;5.298;2023-05-07T04:43:54;14.95;;;13.70;;
43994;SDS011;51687;52.160;5.298;2023-05-07T04:46:23;13.80;;;12.75;;
43994;SDS011;51687;52.160;5.298;2023-05-07T04:48:50;15.13;;;14.03;;
43994;SDS011;51687;52.160;5.298;2023-05-07T04:51:17;13.85;;;12.93;;
43994;SDS011;51687;52.160;5.298;2023-05-07T04:53:44;14.45;;;13.18;;
43994;SDS011;51687;52.160;5.298;2023-05-07T04:56:11;16.17;;;14.88;;
43994;SDS011;51687;52.160;5.298;2023-05-07T04:58:37;14.07;;;12.77;;
43994;SDS011;51687;52.160;5.298;2023-05-07T05:01:04;13.90;;;12.90;;
43994;SDS011;51687;52.160;5.298;2023-05-07T05:03:32;13.70;;;12.75;;
43994;SDS011;51687;52.160;5.298;2023-05-07T05:05:58;13.88;;;13.00;;
43994;SDS011;51687;52.160;5.298;2023-05-07T05:08:25;14.93;;;13.63;;
43994;SDS011;51687;52.160;5.298;2023-05-07T05:10:52;14.40;;;13.38;;
43994;SDS011;51687;52.160;5.298;2023-05-07T05:13:19;15.07;;;13.52;;
43994;SDS011;51687;52.160;5.298;2023-05-07T05:15:47;14.32;;;13.18;;
43994;SDS011;51687;52.160;5.298;2023-05-07T05:18:14;14.95;;;13.52;;
43994;SDS011;51687;52.160;5.298;2023-05-07T05:20:42;18.17;;;14.02;;
43994;SDS011;51687;52.160;5.298;2023-05-07T05:23:08;17.30;;;13.60;;
43994;SDS011;51687;52.160;5.298;2023-05-07T05:25:35;15.00;;;13.90;;
43994;SDS011;51687;52.160;5.298;2023-05-07T05:28:03;15.50;;;14.07;;
43994;SDS011;51687;52.160;5.298;2023-05-07T05:30:30;15.13;;;13.63;;
43994;SDS011;51687;52.160;5.298;2023-05-07T05:32:57;15.30;;;13.85;;
43994;SDS011;51687;52.160;5.298;2023-05-07T05:35:23;15.07;;;13.75;;
43994;SDS011;51687;52.160;5.298;2023-05-07T05:37:50;15.00;;;13.90;;
43994;SDS011;51687;52.160;5.298;2023-05-07T05:40:17;15.30;;;14.20;;
43994;SDS011;51687;52.160;5.298;2023-05-07T05:42:45;15.43;;;14.35;;
43994;SDS011;51687;52.160;5.298;2023-05-07T05:47:39;15.70;;;14.50;;
43994;SDS011;51687;52.160;5.298;2023-05-07T05:50:06;15.15;;;14.05;;
43994;SDS011;51687;52.160;5.298;2023-05-07T05:52:33;16.70;;;15.18;;
43994;SDS011;51687;52.160;5.298;2023-05-07T05:55:00;16.58;;;15.02;;
43994;SDS011;51687;52.160;5.298;2023-05-07T05:57:27;16.17;;;14.52;;
43994;SDS011;51687;52.160;5.298;2023-05-07T05:59:54;16.50;;;14.93;;
43994;SDS011;51687;52.160;5.298;2023-05-07T06:02:21;17.25;;;15.45;;
43994;SDS011;51687;52.160;5.298;2023-05-07T06:04:48;16.17;;;14.82;;
43994;SDS011;51687;52.160;5.298;2023-05-07T06:07:15;16.80;;;15.48;;
43994;SDS011;51687;52.160;5.298;2023-05-07T06:09:42;15.63;;;14.43;;
43994;SDS011;51687;52.160;5.298;2023-05-07T06:12:08;17.45;;;15.88;;
43994;SDS011;51687;52.160;5.298;2023-05-07T06:14:35;16.08;;;14.95;;
43994;SDS011;51687;52.160;5.298;2023-05-07T06:17:02;18.00;;;16.42;;
43994;SDS011;51687;52.160;5.298;2023-05-07T06:19:29;17.08;;;15.77;;
43994;SDS011;51687;52.160;5.298;2023-05-07T06:21:55;17.00;;;15.75;;
43994;SDS011;51687;52.160;5.298;2023-05-07T06:24:22;17.50;;;16.23;;
43994;SDS011;51687;52.160;5.298;2023-05-07T06:26:50;17.67;;;16.48;;
43994;SDS011;51687;52.160;5.298;2023-05-07T06:29:16;17.80;;;16.25;;
43994;SDS011;51687;52.160;5.298;2023-05-07T06:31:43;19.20;;;17.80;;
43994;SDS011;51687;52.160;5.298;2023-05-07T06:34:10;18.58;;;17.08;;
43994;SDS011;51687;52.160;5.298;2023-05-07T06:36:40;18.55;;;17.13;;
43994;SDS011;51687;52.160;5.298;2023-05-07T06:39:07;19.85;;;18.35;;
43994;SDS011;51687;52.160;5.298;2023-05-07T06:41:34;20.15;;;18.67;;
43994;SDS011;51687;52.160;5.298;2023-05-07T06:44:02;20.33;;;18.73;;
43994;SDS011;51687;52.160;5.298;2023-05-07T06:46:29;21.88;;;19.88;;
43994;SDS011;51687;52.160;5.298;2023-05-07T06:48:56;20.48;;;18.88;;
43994;SDS011;51687;52.160;5.298;2023-05-07T06:51:23;20.17;;;18.63;;
43994;SDS011;51687;52.160;5.298;2023-05-07T06:53:49;20.60;;;19.00;;
43994;SDS011;51687;52.160;5.298;2023-05-07T06:56:16;22.13;;;20.52;;
43994;SDS011;51687;52.160;5.298;2023-05-07T06:58:43;21.75;;;20.08;;
43994;SDS011;51687;52.160;5.298;2023-05-07T07:01:10;20.70;;;19.02;;
43994;SDS011;51687;52.160;5.298;2023-05-07T07:03:36;21.70;;;20.20;;
43994;SDS011;51687;52.160;5.298;2023-05-07T07:06:03;22.40;;;20.60;;
43994;SDS011;51687;52.160;5.298;2023-05-07T07:08:30;21.48;;;20.05;;
43994;SDS011;51687;52.160;5.298;2023-05-07T07:10:57;21.67;;;20.13;;
43994;SDS011;51687;52.160;5.298;2023-05-07T07:13:24;22.92;;;21.27;;
43994;SDS011;51687;52.160;5.298;2023-05-07T07:15:51;24.05;;;22.27;;
43994;SDS011;51687;52.160;5.298;2023-05-07T07:18:19;22.77;;;21.23;;
43994;SDS011;51687;52.160;5.298;2023-05-07T07:20:46;24.33;;;21.95;;
43994;SDS011;51687;52.160;5.298;2023-05-07T07:23:13;22.05;;;20.45;;
43994;SDS011;51687;52.160;5.298;2023-05-07T07:25:42;23.38;;;21.55;;
43994;SDS011;51687;52.160;5.298;2023-05-07T07:28:09;23.80;;;21.83;;
43994;SDS011;51687;52.160;5.298;2023-05-07T07:30:37;23.70;;;22.00;;
43994;SDS011;51687;52.160;5.298;2023-05-07T07:33:04;23.20;;;21.70;;
43994;SDS011;51687;52.160;5.298;2023-05-07T07:35:32;24.30;;;22.42;;
43994;SDS011;51687;52.160;5.298;2023-05-07T07:38:00;24.77;;;22.30;;
43994;SDS011;51687;52.160;5.298;2023-05-07T07:40:27;24.00;;;22.30;;
43994;SDS011;51687;52.160;5.298;2023-05-07T07:42:55;24.30;;;22.48;;
43994;SDS011;51687;52.160;5.298;2023-05-07T07:45:23;22.60;;;21.02;;
43994;SDS011;51687;52.160;5.298;2023-05-07T07:47:50;23.13;;;21.52;;
43994;SDS011;51687;52.160;5.298;2023-05-07T07:50:17;20.42;;;18.58;;
43994;SDS011;51687;52.160;5.298;2023-05-07T07:53:01;22.48;;;20.67;;
43994;SDS011;51687;52.160;5.298;2023-05-07T07:55:28;21.05;;;19.60;;
43994;SDS011;51687;52.160;5.298;2023-05-07T07:57:54;20.73;;;19.10;;
43994;SDS011;51687;52.160;5.298;2023-05-07T08:00:21;20.67;;;18.80;;
43994;SDS011;51687;52.160;5.298;2023-05-07T08:02:48;21.58;;;19.98;;
43994;SDS011;51687;52.160;5.298;2023-05-07T08:05:15;21.13;;;19.55;;
43994;SDS011;51687;52.160;5.298;2023-05-07T08:07:42;20.20;;;18.63;;
43994;SDS011;51687;52.160;5.298;2023-05-07T08:10:09;21.48;;;19.45;;
43994;SDS011;51687;52.160;5.298;2023-05-07T08:12:36;22.10;;;20.33;;
43994;SDS011;51687;52.160;5.298;2023-05-07T08:15:03;19.63;;;18.15;;
43994;SDS011;51687;52.160;5.298;2023-05-07T08:17:31;21.42;;;19.83;;
43994;SDS011;51687;52.160;5.298;2023-05-07T08:19:57;22.48;;;20.75;;
43994;SDS011;51687;52.160;5.298;2023-05-07T08:22:24;21.52;;;20.02;;
43994;SDS011;51687;52.160;5.298;2023-05-07T08:24:51;21.67;;;20.15;;
43994;SDS011;51687;52.160;5.298;2023-05-07T08:27:19;22.20;;;20.45;;
43994;SDS011;51687;52.160;5.298;2023-05-07T08:29:46;21.33;;;19.70;;
43994;SDS011;51687;52.160;5.298;2023-05-07T08:32:14;22.75;;;21.00;;
43994;SDS011;51687;52.160;5.298;2023-05-07T08:34:42;23.30;;;21.27;;
43994;SDS011;51687;52.160;5.298;2023-05-07T08:37:08;23.60;;;22.00;;
43994;SDS011;51687;52.160;5.298;2023-05-07T08:39:35;23.00;;;21.38;;
43994;SDS011;51687;52.160;5.298;2023-05-07T08:42:02;21.58;;;20.17;;
43994;SDS011;51687;52.160;5.298;2023-05-07T08:44:33;23.95;;;22.25;;
43994;SDS011;51687;52.160;5.298;2023-05-07T08:47:01;22.77;;;21.08;;
43994;SDS011;51687;52.160;5.298;2023-05-07T08:49:28;22.08;;;20.33;;
43994;SDS011;51687;52.160;5.298;2023-05-07T08:51:55;22.17;;;20.50;;
43994;SDS011;51687;52.160;5.298;2023-05-07T08:54:22;22.52;;;20.40;;
43994;SDS011;51687;52.160;5.298;2023-05-07T08:56:50;22.95;;;20.98;;
43994;SDS011;51687;52.160;5.298;2023-05-07T08:59:17;23.92;;;22.13;;
43994;SDS011;51687;52.160;5.298;2023-05-07T09:01:43;23.52;;;21.50;;
43994;SDS011;51687;52.160;5.298;2023-05-07T09:04:11;23.50;;;21.95;;
43994;SDS011;51687;52.160;5.298;2023-05-07T09:06:40;22.60;;;20.83;;
43994;SDS011;51687;52.160;5.298;2023-05-07T09:09:08;21.55;;;20.20;;
43994;SDS011;51687;52.160;5.298;2023-05-07T09:11:36;23.27;;;21.38;;
43994;SDS011;51687;52.160;5.298;2023-05-07T09:14:02;22.23;;;20.63;;
43994;SDS011;51687;52.160;5.298;2023-05-07T09:16:32;22.70;;;21.00;;
43994;SDS011;51687;52.160;5.298;2023-05-07T09:18:59;21.85;;;20.23;;
43994;SDS011;51687;52.160;5.298;2023-05-07T09:21:27;23.70;;;21.20;;
43994;SDS011;51687;52.160;5.298;2023-05-07T09:23:54;23.10;;;21.23;;
43994;SDS011;51687;52.160;5.298;2023-05-07T09:26:22;22.98;;;21.33;;
43994;SDS011;51687;52.160;5.298;2023-05-07T09:28:49;20.85;;;19.23;;
43994;SDS011;51687;52.160;5.298;2023-05-07T09:31:16;19.65;;;18.35;;
43994;SDS011;51687;52.160;5.298;2023-05-07T09:33:46;20.13;;;18.55;;
43994;SDS011;51687;52.160;5.298;2023-05-07T09:36:13;21.58;;;20.00;;
43994;SDS011;51687;52.160;5.298;2023-05-07T09:38:42;21.90;;;20.50;;
43994;SDS011;51687;52.160;5.298;2023-05-07T09:41:10;22.73;;;21.05;;
43994;SDS011;51687;52.160;5.298;2023-05-07T09:43:39;21.77;;;20.38;;
43994;SDS011;51687;52.160;5.298;2023-05-07T09:46:08;22.67;;;21.02;;
43994;SDS011;51687;52.160;5.298;2023-05-07T09:48:42;22.13;;;20.63;;
43994;SDS011;51687;52.160;5.298;2023-05-07T09:51:36;23.52;;;22.00;;
43994;SDS011;51687;52.160;5.298;2023-05-07T09:54:05;21.90;;;20.38;;
43994;SDS011;51687;52.160;5.298;2023-05-07T09:56:33;23.37;;;21.63;;
43994;SDS011;51687;52.160;5.298;2023-05-07T09:59:00;22.27;;;20.83;;
43994;SDS011;51687;52.160;5.298;2023-05-07T10:01:30;21.77;;;20.35;;
43994;SDS011;51687;52.160;5.298;2023-05-07T10:03:58;21.80;;;20.23;;
43994;SDS011;51687;52.160;5.298;2023-05-07T10:06:25;16.55;;;15.25;;
43994;SDS011;51687;52.160;5.298;2023-05-07T10:08:52;14.95;;;13.75;;
43994;SDS011;51687;52.160;5.298;2023-05-07T10:11:21;14.27;;;13.07;;
43994;SDS011;51687;52.160;5.298;2023-05-07T10:13:49;13.30;;;12.32;;
43994;SDS011;51687;52.160;5.298;2023-05-07T10:18:45;12.98;;;11.95;;
43994;SDS011;51687;52.160;5.298;2023-05-07T10:21:19;13.93;;;12.93;;
43994;SDS011;51687;52.160;5.298;2023-05-07T10:23:51;11.82;;;10.93;;
43994;SDS011;51687;52.160;5.298;2023-05-07T10:26:45;11.48;;;10.60;;
43994;SDS011;51687;52.160;5.298;2023-05-07T10:35:23;12.30;;;11.45;;
43994;SDS011;51687;52.160;5.298;2023-05-07T10:37:52;11.65;;;10.60;;
43994;SDS011;51687;52.160;5.298;2023-05-07T10:40:20;12.18;;;11.27;;
43994;SDS011;51687;52.160;5.298;2023-05-07T10:45:22;12.20;;;11.27;;
43994;SDS011;51687;52.160;5.298;2023-05-07T10:48:09;11.90;;;10.80;;
43994;SDS011;51687;52.160;5.298;2023-05-07T10:51:18;11.60;;;10.63;;
43994;SDS011;51687;52.160;5.298;2023-05-07T10:53:45;11.93;;;11.02;;
43994;SDS011;51687;52.160;5.298;2023-05-07T10:58:45;9.98;;;9.07;;
43994;SDS011;51687;52.160;5.298;2023-05-07T11:01:11;11.30;;;10.35;;
43994;SDS011;51687;52.160;5.298;2023-05-07T11:06:39;11.95;;;10.63;;
43994;SDS011;51687;52.160;5.298;2023-05-07T11:09:06;10.50;;;9.50;;
43994;SDS011;51687;52.160;5.298;2023-05-07T11:11:49;11.82;;;10.93;;
43994;SDS011;51687;52.160;5.298;2023-05-07T11:17:03;11.35;;;10.35;;
43994;SDS011;51687;52.160;5.298;2023-05-07T11:25:02;10.15;;;9.35;;
43994;SDS011;51687;52.160;5.298;2023-05-07T11:27:30;11.15;;;10.18;;
43994;SDS011;51687;52.160;5.298;2023-05-07T11:29:57;12.13;;;10.95;;
43994;SDS011;51687;52.160;5.298;2023-05-07T11:32:26;11.48;;;10.52;;
43994;SDS011;51687;52.160;5.298;2023-05-07T11:34:56;9.13;;;8.30;;
43994;SDS011;51687;52.160;5.298;2023-05-07T11:37:25;11.65;;;10.68;;
43994;SDS011;51687;52.160;5.298;2023-05-07T11:40:03;13.82;;;10.65;;
43994;SDS011;51687;52.160;5.298;2023-05-07T11:42:37;12.82;;;11.60;;
43994;SDS011;51687;52.160;5.298;2023-05-07T11:45:05;11.10;;;10.35;;
43994;SDS011;51687;52.160;5.298;2023-05-07T11:47:33;11.95;;;10.93;;
43994;SDS011;51687;52.160;5.298;2023-05-07T11:50:04;11.23;;;10.27;;
43994;SDS011;51687;52.160;5.298;2023-05-07T11:52:31;11.35;;;10.23;;
43994;SDS011;51687;52.160;5.298;2023-05-07T11:54:59;10.65;;;9.65;;
43994;SDS011;51687;52.160;5.298;2023-05-07T11:57:26;10.83;;;9.87;;
43994;SDS011;51687;52.160;5.298;2023-05-07T11:59:55;11.40;;;10.60;;
43994;SDS011;51687;52.160;5.298;2023-05-07T12:02:22;12.02;;;11.23;;
43994;SDS011;51687;52.160;5.298;2023-05-07T12:04:54;12.43;;;11.15;;
43994;SDS011;51687;52.160;5.298;2023-05-07T12:07:24;11.73;;;10.77;;
43994;SDS011;51687;52.160;5.298;2023-05-07T12:09:54;11.27;;;10.48;;
43994;SDS011;51687;52.160;5.298;2023-05-07T12:12:24;11.35;;;10.25;;
43994;SDS011;51687;52.160;5.298;2023-05-07T12:14:53;12.77;;;11.63;;
43994;SDS011;51687;52.160;5.298;2023-05-07T12:17:20;13.45;;;12.18;;
43994;SDS011;51687;52.160;5.298;2023-05-07T12:19:47;12.98;;;11.85;;
43994;SDS011;51687;52.160;5.298;2023-05-07T12:22:14;12.10;;;11.10;;
43994;SDS011;51687;52.160;5.298;2023-05-07T12:24:45;12.20;;;11.20;;
43994;SDS011;51687;52.160;5.298;2023-05-07T12:27:13;14.55;;;13.25;;
43994;SDS011;51687;52.160;5.298;2023-05-07T12:29:47;15.18;;;14.05;;
43994;SDS011;51687;52.160;5.298;2023-05-07T12:32:15;14.75;;;13.65;;
43994;SDS011;51687;52.160;5.298;2023-05-07T12:34:43;14.07;;;12.75;;
43994;SDS011;51687;52.160;5.298;2023-05-07T12:37:12;14.63;;;13.43;;
43994;SDS011;51687;52.160;5.298;2023-05-07T12:39:49;13.88;;;12.77;;
43994;SDS011;51687;52.160;5.298;2023-05-07T12:42:19;15.25;;;14.02;;
43994;SDS011;51687;52.160;5.298;2023-05-07T12:44:52;14.98;;;13.65;;
43994;SDS011;51687;52.160;5.298;2023-05-07T12:49:48;14.43;;;13.27;;
43994;SDS011;51687;52.160;5.298;2023-05-07T12:52:14;15.30;;;14.10;;
43994;SDS011;51687;52.160;5.298;2023-05-07T12:54:41;13.82;;;12.63;;
43994;SDS011;51687;52.160;5.298;2023-05-07T12:57:10;13.82;;;12.82;;
43994;SDS011;51687;52.160;5.298;2023-05-07T12:59:37;14.93;;;13.35;;
43994;SDS011;51687;52.160;5.298;2023-05-07T13:02:08;13.93;;;12.90;;
43994;SDS011;51687;52.160;5.298;2023-05-07T13:04:35;14.07;;;12.93;;
43994;SDS011;51687;52.160;5.298;2023-05-07T13:07:02;12.77;;;11.77;;
43994;SDS011;51687;52.160;5.298;2023-05-07T13:09:29;17.42;;;11.43;;
43994;SDS011;51687;52.160;5.298;2023-05-07T13:12:01;14.00;;;11.07;;
43994;SDS011;51687;52.160;5.298;2023-05-07T13:14:27;12.45;;;11.48;;
43994;SDS011;51687;52.160;5.298;2023-05-07T13:16:54;13.25;;;12.07;;
43994;SDS011;51687;52.160;5.298;2023-05-07T13:19:21;13.60;;;12.38;;
43994;SDS011;51687;52.160;5.298;2023-05-07T13:21:48;13.02;;;11.93;;
43994;SDS011;51687;52.160;5.298;2023-05-07T13:24:16;14.00;;;12.65;;
43994;SDS011;51687;52.160;5.298;2023-05-07T13:26:42;12.32;;;11.27;;
43994;SDS011;51687;52.160;5.298;2023-05-07T13:29:11;11.82;;;10.82;;
43994;SDS011;51687;52.160;5.298;2023-05-07T13:31:38;11.60;;;10.55;;
43994;SDS011;51687;52.160;5.298;2023-05-07T13:34:09;12.60;;;11.60;;
43994;SDS011;51687;52.160;5.298;2023-05-07T13:36:36;13.43;;;12.07;;
43994;SDS011;51687;52.160;5.298;2023-05-07T13:39:06;16.95;;;12.25;;
43994;SDS011;51687;52.160;5.298;2023-05-07T13:41:33;12.35;;;11.50;;
43994;SDS011;51687;52.160;5.298;2023-05-07T13:43:59;12.05;;;11.15;;
43994;SDS011;51687;52.160;5.298;2023-05-07T13:46:26;11.45;;;10.45;;
43994;SDS011;51687;52.160;5.298;2023-05-07T13:48:53;10.20;;;9.35;;
43994;SDS011;51687;52.160;5.298;2023-05-07T13:51:20;9.93;;;9.27;;
43994;SDS011;51687;52.160;5.298;2023-05-07T13:53:47;10.90;;;9.68;;
43994;SDS011;51687;52.160;5.298;2023-05-07T13:56:14;9.45;;;8.55;;
43994;SDS011;51687;52.160;5.298;2023-05-07T13:58:41;11.90;;;9.50;;
43994;SDS011;51687;52.160;5.298;2023-05-07T14:01:24;8.00;;;7.20;;
43994;SDS011;51687;52.160;5.298;2023-05-07T14:03:52;7.75;;;7.05;;
43994;SDS011;51687;52.160;5.298;2023-05-07T14:06:20;7.95;;;7.32;;
43994;SDS011;51687;52.160;5.298;2023-05-07T14:08:48;8.00;;;7.20;;
43994;SDS011;51687;52.160;5.298;2023-05-07T14:11:14;7.35;;;6.35;;
43994;SDS011;51687;52.160;5.298;2023-05-07T14:13:41;7.03;;;6.40;;
43994;SDS011;51687;52.160;5.298;2023-05-07T14:16:08;7.22;;;6.65;;
43994;SDS011;51687;52.160;5.298;2023-05-07T14:18:35;7.50;;;6.07;;
43994;SDS011;51687;52.160;5.298;2023-05-07T14:21:05;7.78;;;7.03;;
43994;SDS011;51687;52.160;5.298;2023-05-07T14:23:36;8.40;;;7.60;;
43994;SDS011;51687;52.160;5.298;2023-05-07T14:26:02;9.15;;;8.23;;
43994;SDS011;51687;52.160;5.298;2023-05-07T14:28:29;10.93;;;10.05;;
43994;SDS011;51687;52.160;5.298;2023-05-07T14:30:56;9.63;;;8.82;;
43994;SDS011;51687;52.160;5.298;2023-05-07T14:33:23;10.05;;;9.15;;
43994;SDS011;51687;52.160;5.298;2023-05-07T14:35:50;10.88;;;10.05;;
43994;SDS011;51687;52.160;5.298;2023-05-07T14:38:17;12.27;;;11.18;;
43994;SDS011;51687;52.160;5.298;2023-05-07T14:40:45;11.57;;;10.68;;
43994;SDS011;51687;52.160;5.298;2023-05-07T14:43:12;11.93;;;10.82;;
43994;SDS011;51687;52.160;5.298;2023-05-07T14:45:39;13.15;;;10.30;;
43994;SDS011;51687;52.160;5.298;2023-05-07T14:48:07;12.18;;;10.95;;
43994;SDS011;51687;52.160;5.298;2023-05-07T14:50:38;11.88;;;10.93;;
43994;SDS011;51687;52.160;5.298;2023-05-07T14:53:05;11.60;;;10.65;;
43994;SDS011;51687;52.160;5.298;2023-05-07T14:55:34;12.02;;;10.98;;
43994;SDS011;51687;52.160;5.298;2023-05-07T14:58:02;12.18;;;11.32;;
43994;SDS011;51687;52.160;5.298;2023-05-07T15:00:29;12.52;;;11.43;;
43994;SDS011;51687;52.160;5.298;2023-05-07T15:02:56;14.00;;;12.65;;
43994;SDS011;51687;52.160;5.298;2023-05-07T15:05:29;22.27;;;14.73;;
43994;SDS011;51687;52.160;5.298;2023-05-07T15:07:56;21.67;;;14.77;;